Time;durP1;ratioP1;P1;durP2;ratioP2;P2;SDS_P1;SDS_P2;PMS_P1;PMS_P2;Temp;Humidity;BMP_temperature;BMP_pressure;BME280_temperature;BME280_humidity;BME280_pressure;Samples;Min_cycle;Max_cycle;Signal;HPM_P1;HPM_P2
2024/01/17 00:01:59;;;;;;;15.63;8.15;;;;;;;-1.33;100.00;91718.41;4995285;28;20038;-77
2024/01/17 00:04:27;;;;;;;12.98;7.85;;;;;;;-1.33;100.00;91715.03;4995948;28;20038;-77
2024/01/17 00:06:53;;;;;;;13.23;7.43;;;;;;;-1.35;100.00;91704.22;4995764;28;20062;-76
2024/01/17 00:09:18;;;;;;;10.43;7.40;;;;;;;-1.37;100.00;91690.84;4994215;28;20053;-75
2024/01/17 00:11:44;;;;;;;11.18;7.25;;;;;;;-1.35;100.00;91683.69;4994871;28;20121;-77
2024/01/17 00:14:11;;;;;;;14.07;8.18;;;;;;;-1.32;100.00;91684.00;4987336;28;20042;-78
2024/01/17 00:16:37;;;;;;;14.75;8.32;;;;;;;-1.36;100.00;91679.56;4991054;28;20121;-76
2024/01/17 00:19:02;;;;;;;12.18;7.68;;;;;;;-1.30;100.00;91692.25;4994456;28;20054;-76
2024/01/17 00:21:28;;;;;;;13.30;8.45;;;;;;;-1.32;100.00;91699.41;4977129;28;20061;-78
2024/01/17 00:23:54;;;;;;;13.30;7.80;;;;;;;-1.33;100.00;91707.34;4991769;28;20046;-76
2024/01/17 00:26:20;;;;;;;13.48;7.93;;;;;;;-1.37;100.00;91701.91;4988202;28;20034;-77
2024/01/17 00:28:46;;;;;;;12.80;7.43;;;;;;;-1.36;100.00;91689.84;4969505;28;20105;-77
2024/01/17 00:31:12;;;;;;;13.40;7.70;;;;;;;-1.35;100.00;91688.81;4986560;28;20058;-77
2024/01/17 00:33:37;;;;;;;12.02;7.45;;;;;;;-1.38;100.00;91689.28;4986579;28;20057;-76
2024/01/17 00:36:04;;;;;;;12.45;7.07;;;;;;;-1.40;100.00;91693.88;4992723;28;20034;-77
2024/01/17 00:38:31;;;;;;;11.15;6.45;;;;;;;-1.41;100.00;91695.66;4976893;28;20034;-75
2024/01/17 00:40:57;;;;;;;14.82;7.10;;;;;;;-1.47;100.00;91679.38;4977060;28;20125;-77
2024/01/17 00:43:23;;;;;;;11.75;6.68;;;;;;;-1.51;100.00;91651.84;4977134;28;20026;-76
2024/01/17 00:45:48;;;;;;;10.73;6.95;;;;;;;-1.48;100.00;91651.41;4977192;28;20061;-77
2024/01/17 00:48:14;;;;;;;11.57;6.78;;;;;;;-1.49;100.00;91645.50;4990410;28;20034;-77
2024/01/17 00:50:40;;;;;;;10.88;6.93;;;;;;;-1.51;100.00;91634.69;4995441;28;20046;-76
2024/01/17 00:53:05;;;;;;;13.38;6.90;;;;;;;-1.49;100.00;91648.06;4994417;28;20026;-77
2024/01/17 00:55:34;;;;;;;14.57;7.63;;;;;;;-1.44;100.00;91651.69;4969878;28;20050;-76
2024/01/17 00:57:59;;;;;;;11.50;7.40;;;;;;;-1.41;100.00;91657.16;4975176;28;20110;-77
2024/01/17 01:00:25;;;;;;;14.75;7.43;;;;;;;-1.38;100.00;91632.81;4990198;28;20560;-77
2024/01/17 01:02:51;;;;;;;16.65;8.07;;;;;;;-1.32;100.00;91634.44;4994069;28;20054;-77
2024/01/17 01:05:17;;;;;;;13.07;7.60;;;;;;;-1.29;100.00;91647.56;4977445;28;20108;-77
2024/01/17 01:07:43;;;;;;;11.50;7.40;;;;;;;-1.24;100.00;91653.81;4992904;28;20425;-77
2024/01/17 01:10:10;;;;;;;10.93;7.20;;;;;;;-1.20;100.00;91642.81;4977408;28;20053;-77
2024/01/17 01:12:36;;;;;;;12.43;7.55;;;;;;;-1.18;100.00;91638.22;4976369;28;20474;-78
2024/01/17 01:15:01;;;;;;;14.18;7.45;;;;;;;-1.13;100.00;91630.59;4986550;28;20080;-77
2024/01/17 01:17:27;;;;;;;12.80;8.20;;;;;;;-1.08;100.00;91637.59;4990999;28;20311;-77
2024/01/17 01:19:54;;;;;;;10.30;7.22;;;;;;;-0.99;100.00;91625.13;4974693;28;20053;-77
2024/01/17 01:22:21;;;;;;;10.57;6.90;;;;;;;-0.94;100.00;91627.78;4983548;28;20533;-77
2024/01/17 01:24:46;;;;;;;11.60;7.13;;;;;;;-0.91;100.00;91625.50;4976450;28;20046;-78
2024/01/17 01:27:12;;;;;;;13.55;7.85;;;;;;;-0.89;100.00;91626.03;4988858;28;20038;-77
2024/01/17 01:29:38;;;;;;;13.10;8.10;;;;;;;-0.88;100.00;91627.63;4991450;28;20046;-77
2024/01/17 01:32:04;;;;;;;13.65;7.25;;;;;;;-0.87;100.00;91620.69;4966861;28;20035;-77
2024/01/17 01:34:29;;;;;;;14.18;8.10;;;;;;;-0.83;100.00;91629.47;4981588;28;20038;-77
2024/01/17 01:36:55;;;;;;;13.52;8.20;;;;;;;-0.74;100.00;91612.63;4994567;28;20034;-76
2024/01/17 01:39:20;;;;;;;12.88;8.38;;;;;;;-0.72;100.00;91600.31;4969475;28;20117;-77
2024/01/17 01:41:46;;;;;;;12.65;8.18;;;;;;;-0.75;100.00;91605.91;4977436;28;20034;-77
2024/01/17 01:44:11;;;;;;;12.82;7.97;;;;;;;-0.71;100.00;91611.38;4994387;28;20034;-77
2024/01/17 01:46:38;;;;;;;12.57;8.23;;;;;;;-0.66;100.00;91619.91;4995481;28;20022;-77
2024/01/17 01:49:04;;;;;;;12.68;7.70;;;;;;;-0.52;100.00;91616.97;4978225;28;20047;-77
2024/01/17 01:51:30;;;;;;;10.75;7.22;;;;;;;-0.59;100.00;91604.31;4967566;28;20034;-77
2024/01/17 01:54:03;;;;;;;12.35;7.60;;;;;;;-0.60;100.00;91610.47;4981844;28;20035;-78
2024/01/17 01:56:30;;;;;;;;;;;;;;;-0.62;100.00;91625.34;4980866;28;20042;-78
2024/01/17 01:58:58;;;;;;;11.75;7.38;;;;;;;-0.63;100.00;91621.25;4997251;28;20274;-77
2024/01/17 02:01:25;;;;;;;12.73;7.75;;;;;;;-0.65;100.00;91620.72;4992395;28;20042;-78
2024/01/17 02:03:54;;;;;;;11.93;7.50;;;;;;;-0.71;100.00;91596.72;4997810;28;20026;-78
2024/01/17 02:06:21;;;;;;;11.20;7.72;;;;;;;-0.64;100.00;91602.44;4997789;28;20034;-78
2024/01/17 02:08:46;;;;;;;15.35;8.60;;;;;;;-0.65;100.00;91611.19;4997003;28;20030;-77
2024/01/17 02:11:13;;;;;;;18.27;8.43;;;;;;;-0.60;100.00;91614.84;4986409;28;20038;-77
2024/01/17 02:13:40;;;;;;;13.30;8.40;;;;;;;-0.58;100.00;91623.88;4997240;28;20105;-78
2024/01/17 02:16:06;;;;;;;13.27;7.75;;;;;;;-0.59;100.00;91609.44;4977525;28;20522;-77
2024/01/17 02:18:31;;;;;;;11.88;7.93;;;;;;;-0.61;100.00;91595.28;4981943;28;20029;-78
2024/01/17 02:20:57;;;;;;;13.43;8.02;;;;;;;-0.55;100.00;91602.03;4998955;28;20046;-77
2024/01/17 02:23:26;;;;;;;13.43;7.95;;;;;;;-0.49;100.00;91611.38;4993605;28;20038;-77
2024/01/17 02:25:54;;;;;;;14.45;8.15;;;;;;;-0.46;100.00;91608.31;4989384;28;20022;-78
2024/01/17 02:28:20;;;;;;;12.65;8.10;;;;;;;-0.44;100.00;91608.84;4986661;28;20030;-77
2024/01/17 02:30:46;;;;;;;13.32;8.57;;;;;;;-0.40;100.00;91598.88;4995844;28;20117;-76
2024/01/17 02:33:13;;;;;;;16.13;8.55;;;;;;;-0.40;100.00;91599.66;4974117;28;20076;-78
2024/01/17 02:35:39;;;;;;;16.15;9.07;;;;;;;-0.41;100.00;91600.66;4982693;28;20121;-77
2024/01/17 02:38:04;;;;;;;14.60;8.60;;;;;;;-0.39;100.00;91596.03;4999895;28;20059;-77
2024/01/17 02:40:30;;;;;;;13.55;7.95;;;;;;;-0.39;100.00;91598.63;4984102;28;20115;-77
2024/01/17 02:42:55;;;;;;;12.55;8.20;;;;;;;-0.39;100.00;91592.72;4989162;28;20104;-76
2024/01/17 02:45:21;;;;;;;11.88;7.97;;;;;;;-0.39;100.00;91597.84;4998388;28;20041;-77
2024/01/17 02:47:47;;;;;;;12.20;7.63;;;;;;;-0.42;100.00;91606.81;4982256;28;20018;-76
2024/01/17 02:50:15;;;;;;;13.57;7.95;;;;;;;-0.40;100.00;91601.44;5002380;28;20038;-77
2024/01/17 02:52:41;;;;;;;12.48;7.72;;;;;;;-0.42;100.00;91599.09;5002481;28;20091;-78
2024/01/17 02:55:09;;;;;;;12.65;7.30;;;;;;;-0.41;100.00;91595.50;4998163;28;20526;-78
2024/01/17 02:57:34;;;;;;;13.60;7.93;;;;;;;-0.38;100.00;91594.25;4998692;28;20118;-77
2024/01/17 03:00:00;;;;;;;13.77;7.85;;;;;;;-0.39;100.00;91598.63;5001192;28;20121;-77
2024/01/17 03:02:25;;;;;;;13.50;8.00;;;;;;;-0.37;100.00;91601.72;4999783;28;20053;-77
2024/01/17 03:04:51;;;;;;;11.57;7.63;;;;;;;-0.42;100.00;91599.88;4984121;28;20505;-78
2024/01/17 03:07:17;;;;;;;14.00;7.78;;;;;;;-0.36;100.00;91611.00;4963562;28;20035;-77
2024/01/17 03:09:43;;;;;;;18.27;8.35;;;;;;;-0.35;100.00;91604.06;4980118;28;20137;-78
2024/01/17 03:12:09;;;;;;;14.25;8.10;;;;;;;-0.38;100.00;91592.47;5001007;28;20105;-77
2024/01/17 03:14:35;;;;;;;17.33;8.50;;;;;;;-0.34;100.00;91590.94;4993600;28;20046;-76
2024/01/17 03:17:02;;;;;;;13.23;7.90;;;;;;;-0.34;100.00;91592.75;4995945;28;20047;-78
2024/01/17 03:19:28;;;;;;;12.13;7.63;;;;;;;-0.37;100.00;91590.66;4995088;28;20034;-77
2024/01/17 03:21:53;;;;;;;11.98;7.85;;;;;;;-0.32;100.00;91594.06;4984612;28;20030;-77
2024/01/17 03:24:19;;;;;;;13.10;7.88;;;;;;;-0.35;100.00;91579.13;5001331;28;20414;-77
2024/01/17 03:26:44;;;;;;;14.82;8.60;;;;;;;-0.29;100.00;91570.44;5000986;28;20033;-77
2024/01/17 03:29:10;;;;;;;12.95;8.52;;;;;;;-0.28;100.00;91564.28;4999896;28;20038;-77
2024/01/17 03:31:36;;;;;;;13.38;8.10;;;;;;;-0.16;100.00;91556.41;5001171;28;20034;-78
2024/01/17 03:34:01;;;;;;;14.38;8.20;;;;;;;-0.23;100.00;91556.59;4984294;28;20533;-78
2024/01/17 03:36:29;;;;;;;14.27;8.68;;;;;;;-0.21;100.00;91544.28;4975685;28;20033;-76
2024/01/17 03:38:55;;;;;;;14.32;8.93;;;;;;;-0.27;100.00;91524.69;4992569;28;20952;-77
2024/01/17 03:41:21;;;;;;;15.68;9.35;;;;;;;-0.30;100.00;91525.16;5001728;28;20027;-78
2024/01/17 03:43:47;;;;;;;15.95;8.60;;;;;;;-0.27;100.00;91523.88;5002505;28;20133;-77
2024/01/17 03:46:13;;;;;;;16.30;8.98;;;;;;;-0.30;100.00;91520.00;5002030;28;20173;-79
2024/01/17 03:48:39;;;;;;;14.75;9.02;;;;;;;-0.34;100.00;91498.38;5000241;28;20038;-77
2024/01/17 03:51:05;;;;;;;14.52;8.95;;;;;;;-0.37;100.00;91488.56;4966280;28;20044;-77
2024/01/17 03:53:31;;;;;;;19.20;9.68;;;;;;;-0.31;100.00;91487.63;4984986;28;20065;-77
2024/01/17 03:55:56;;;;;;;14.52;9.88;;;;;;;-0.29;100.00;91488.16;4982276;28;20031;-78
2024/01/17 03:58:22;;;;;;;17.67;10.27;;;;;;;-0.23;100.00;91497.44;4983767;28;20117;-77
2024/01/17 04:00:47;;;;;;;17.55;10.73;;;;;;;-0.19;100.00;91490.03;4982589;28;20038;-77
2024/01/17 04:03:13;;;;;;;16.60;9.50;;;;;;;-0.21;100.00;91490.25;4994409;28;20494;-77
2024/01/17 04:05:41;;;;;;;16.45;9.27;;;;;;;-0.17;100.00;91494.94;4976898;28;20094;-77
2024/01/17 04:08:07;;;;;;;17.55;10.23;;;;;;;-0.17;100.00;91484.63;4980052;28;20098;-78
2024/01/17 04:10:33;;;;;;;16.27;9.45;;;;;;;-0.18;100.00;91478.72;4996925;28;20045;-77
2024/01/17 04:13:00;;;;;;;15.07;9.80;;;;;;;-0.18;100.00;91467.63;4999008;28;20158;-78
2024/01/17 04:15:26;;;;;;;16.30;10.70;;;;;;;-0.17;100.00;91466.63;5000282;28;20022;-77
2024/01/17 04:17:51;;;;;;;17.27;10.30;;;;;;;-0.18;100.00;91471.00;4973482;28;20143;-78
2024/01/17 04:20:17;;;;;;;18.02;10.68;;;;;;;-0.20;100.00;91473.06;4993734;28;20082;-78
2024/01/17 04:22:43;;;;;;;16.10;10.85;;;;;;;-0.19;100.00;91463.53;4966416;28;20525;-79
2024/01/17 04:25:08;;;;;;;17.00;9.98;;;;;;;-0.18;100.00;91449.63;4966491;28;20030;-79
2024/01/17 04:27:34;;;;;;;17.38;11.02;;;;;;;-0.16;100.00;91452.75;4988983;28;20477;-76
2024/01/17 04:29:59;;;;;;;17.15;10.23;;;;;;;-0.13;100.00;91452.25;4991191;28;20124;-78
2024/01/17 04:32:26;;;;;;;18.15;10.10;;;;;;;-0.14;100.00;91450.69;4991423;28;20045;-78
2024/01/17 04:34:52;;;;;;;19.15;10.40;;;;;;;-0.11;100.00;91450.19;4978653;28;20037;-78
2024/01/17 04:37:17;;;;;;;18.45;9.82;;;;;;;-0.12;100.00;91452.00;4981127;28;20041;-78
2024/01/17 04:39:43;;;;;;;14.85;9.82;;;;;;;-0.11;100.00;91429.63;4998319;28;20093;-77
2024/01/17 04:42:08;;;;;;;14.07;8.82;;;;;;;-0.14;100.00;91425.75;5000392;28;20109;-77
2024/01/17 04:44:34;;;;;;;12.85;7.13;;;;;;;-0.05;100.00;91431.97;5001435;28;20052;-78
2024/01/17 04:47:00;;;;;;;11.32;6.57;;;;;;;-0.07;100.00;91421.19;4983232;28;20042;-78
2024/01/17 04:49:27;;;;;;;11.52;7.20;;;;;;;0.02;100.00;91431.75;4967225;28;20034;-77
2024/01/17 04:51:56;;;;;;;11.73;6.90;;;;;;;-0.01;100.00;91419.41;5000152;28;20042;-77
2024/01/17 04:54:23;;;;;;;14.20;7.68;;;;;;;0.02;100.00;91413.00;5000181;28;20019;-76
2024/01/17 04:56:49;;;;;;;12.15;7.35;;;;;;;0.06;100.00;91430.25;5001004;28;20356;-77
2024/01/17 04:59:15;;;;;;;13.68;7.65;;;;;;;0.03;100.00;91435.13;4997468;28;20028;-77
2024/01/17 05:01:40;;;;;;;10.90;6.72;;;;;;;0.03;100.00;91433.34;4973606;28;20050;-78
2024/01/17 05:04:07;;;;;;;13.18;7.90;;;;;;;0.03;100.00;91446.19;4983107;28;20034;-77
2024/01/17 05:06:35;;;;;;;12.60;6.97;;;;;;;0.04;100.00;91447.75;4991182;28;20085;-77
2024/01/17 05:09:03;;;;;;;15.85;6.20;;;;;;;0.04;100.00;91442.59;5001064;28;20026;-78
2024/01/17 05:11:29;;;;;;;10.43;6.57;;;;;;;0.07;100.00;91421.53;5000160;28;20141;-77
2024/01/17 05:13:54;;;;;;;11.15;6.75;;;;;;;0.04;100.00;91405.78;4975349;28;20059;-77
2024/01/17 05:16:22;;;;;;;10.98;6.25;;;;;;;0.09;100.00;91445.22;5000586;28;20038;-78
2024/01/17 05:18:48;;;;;;;13.77;6.72;;;;;;;0.08;100.00;91456.53;5000353;28;20026;-79
2024/01/17 05:21:13;;;;;;;10.80;6.28;;;;;;;0.12;100.00;91470.44;4980210;28;20035;-78
2024/01/17 05:23:39;;;;;;;12.50;6.20;;;;;;;0.09;100.00;91455.50;4999153;28;20086;-77
2024/01/17 05:26:05;;;;;;;10.20;6.30;;;;;;;0.10;100.00;91457.06;4963317;28;20117;-78
2024/01/17 05:28:31;;;;;;;11.70;6.72;;;;;;;0.11;100.00;91453.47;4991118;28;20029;-78
2024/01/17 05:30:57;;;;;;;11.85;7.07;;;;;;;0.13;100.00;91466.06;4997909;28;20042;-77
2024/01/17 05:33:22;;;;;;;12.07;7.10;;;;;;;0.03;100.00;91443.63;4993925;28;20040;-78
2024/01/17 05:35:48;;;;;;;10.70;6.95;;;;;;;0.15;100.00;91454.50;4965942;28;20049;-78
2024/01/17 05:38:13;;;;;;;12.82;7.70;;;;;;;0.13;100.00;91453.97;4978345;28;20031;-79
2024/01/17 05:40:39;;;;;;;14.55;8.05;;;;;;;0.14;100.00;91462.50;4978211;28;20054;-77
2024/01/17 05:43:04;;;;;;;13.18;6.75;;;;;;;0.14;100.00;91459.91;4980586;28;20124;-77
2024/01/17 05:45:32;;;;;;;11.20;6.93;;;;;;;0.09;100.00;91459.88;4980603;28;20049;-76
2024/01/17 05:47:58;;;;;;;10.38;6.03;;;;;;;0.15;100.00;91482.81;4997347;28;20041;-80
2024/01/17 05:50:23;;;;;;;10.80;5.68;;;;;;;0.15;100.00;91475.09;4998616;28;20042;-80
2024/01/17 05:52:49;;;;;;;11.93;6.85;;;;;;;0.10;100.00;91454.47;4998051;28;20035;-80
2024/01/17 05:55:20;;;;;;;8.82;5.80;;;;;;;0.15;100.00;91475.09;4981594;28;20041;-79
2024/01/17 05:57:46;;;;;;;10.50;6.10;;;;;;;0.17;100.00;91457.59;4994948;28;20057;-80
2024/01/17 06:00:14;;;;;;;11.50;7.22;;;;;;;0.23;100.00;91465.38;4999125;28;20030;-80
2024/01/17 06:02:40;;;;;;;13.63;8.30;;;;;;;0.15;100.00;91458.88;4976878;28;20152;-80
2024/01/17 06:05:08;;;;;;;14.30;7.20;;;;;;;0.12;100.00;91454.25;4993521;28;20038;-79
2024/01/17 06:07:34;;;;;;;13.68;8.25;;;;;;;0.04;100.00;91458.03;4995557;28;20049;-78
2024/01/17 06:10:00;;;;;;;12.43;7.78;;;;;;;-0.01;100.00;91456.19;4982256;28;20042;-79
2024/01/17 06:12:25;;;;;;;12.80;8.18;;;;;;;0.05;100.00;91459.59;4998112;28;20440;-79
2024/01/17 06:14:51;;;;;;;18.00;9.27;;;;;;;0.00;100.00;91446.72;4980260;28;20038;-80
2024/01/17 06:17:17;;;;;;;15.52;8.55;;;;;;;0.06;100.00;91450.84;4986843;28;20034;-80
2024/01/17 06:19:43;;;;;;;15.80;8.70;;;;;;;0.03;100.00;91450.56;5002007;28;20041;-78
2024/01/17 06:22:09;;;;;;;14.70;8.25;;;;;;;0.02;100.00;91444.63;4997932;28;20038;-76
2024/01/17 06:24:35;;;;;;;12.98;7.82;;;;;;;-0.03;100.00;91442.03;4982464;28;20417;-81
2024/01/17 06:27:01;;;;;;;12.70;8.18;;;;;;;-0.10;100.00;91451.75;4983347;28;20034;-77
2024/01/17 06:29:29;;;;;;;12.60;7.78;;;;;;;-0.14;100.00;91453.28;5001949;28;20034;-79
2024/01/17 06:31:55;;;;;;;14.93;8.65;;;;;;;-0.19;100.00;91453.25;4969090;28;20046;-79
2024/01/17 06:34:20;;;;;;;15.15;8.10;;;;;;;-0.17;100.00;91456.34;4985968;28;20047;-80
2024/01/17 06:36:46;;;;;;;14.88;8.55;;;;;;;-0.16;100.00;91455.31;5001574;28;20034;-78
2024/01/17 06:39:12;;;;;;;14.32;8.80;;;;;;;-0.21;100.00;91441.38;4985463;28;20057;-79
2024/01/17 06:41:38;;;;;;;15.55;8.68;;;;;;;-0.21;100.00;91441.38;4990793;28;20413;-78
2024/01/17 06:44:06;;;;;;;13.43;8.82;;;;;;;-0.19;100.00;91445.53;4978613;28;20030;-80
2024/01/17 06:46:32;;;;;;;15.77;9.13;;;;;;;-0.22;100.00;91457.84;4985969;28;20030;-79
2024/01/17 06:48:57;;;;;;;14.57;8.93;;;;;;;-0.26;100.00;91458.59;4985954;28;20030;-79
2024/01/17 06:51:24;;;;;;;15.63;8.85;;;;;;;-0.23;100.00;91464.00;4966530;28;20066;-79
2024/01/17 06:53:49;;;;;;;16.70;8.30;;;;;;;-0.25;100.00;91460.94;5000325;28;20026;-78
2024/01/17 06:56:15;;;;;;;16.05;8.70;;;;;;;-0.24;100.00;91467.59;5003200;28;20054;-80
2024/01/17 06:58:42;;;;;;;16.13;9.65;;;;;;;-0.22;100.00;91470.72;4971263;28;20030;-80
2024/01/17 07:01:09;;;;;;;15.45;9.30;;;;;;;-0.18;100.00;91475.34;4978981;28;20066;-79
2024/01/17 07:03:35;;;;;;;15.57;9.25;;;;;;;-0.19;100.00;91474.59;4984175;28;20065;-79
2024/01/17 07:06:04;;;;;;;14.55;8.98;;;;;;;-0.19;100.00;91468.69;4983964;28;20039;-78
2024/01/17 07:08:30;;;;;;;13.90;9.02;;;;;;;-0.22;100.00;91457.84;5000334;28;20078;-79
2024/01/17 07:10:55;;;;;;;15.95;9.07;;;;;;;-0.24;100.00;91451.41;4985935;28;20039;-80
2024/01/17 07:13:21;;;;;;;14.40;9.32;;;;;;;-0.19;100.00;91450.66;4969288;28;20087;-79
2024/01/17 07:15:46;;;;;;;14.25;9.00;;;;;;;-0.22;100.00;91470.72;5002816;28;20030;-78
2024/01/17 07:18:12;;;;;;;13.70;9.13;;;;;;;-0.25;100.00;91466.06;4996462;28;20046;-80
2024/01/17 07:20:38;;;;;;;14.75;8.73;;;;;;;-0.17;100.00;91469.97;4978662;28;20058;-78
2024/01/17 07:23:04;;;;;;;14.25;8.75;;;;;;;-0.13;100.00;91468.47;5006741;28;20030;-78
2024/01/17 07:25:31;;;;;;;16.50;9.90;;;;;;;-0.12;100.00;91451.22;5011029;28;20035;-78
2024/01/17 07:27:56;;;;;;;14.32;9.63;;;;;;;-0.19;100.00;91436.00;4977115;28;20037;-77
2024/01/17 07:30:22;;;;;;;16.45;9.10;;;;;;;-0.11;100.00;91456.13;4989947;28;20047;-78
2024/01/17 07:32:48;;;;;;;14.98;9.50;;;;;;;-0.08;100.00;91449.72;5008871;28;20104;-80
2024/01/17 07:35:14;;;;;;;17.92;9.93;;;;;;;-0.09;100.00;91450.72;5010784;28;20039;-79
2024/01/17 07:37:39;;;;;;;14.13;9.10;;;;;;;0.12;100.00;91444.72;4978334;28;20042;-79
2024/01/17 07:40:06;;;;;;;19.33;9.40;;;;;;;0.18;100.00;91448.09;5010759;28;20094;-79
2024/01/17 07:42:31;;;;;;;14.45;9.27;;;;;;;0.13;100.00;91453.97;4993229;28;20038;-78
2024/01/17 07:44:57;;;;;;;12.35;8.23;;;;;;;0.08;100.00;91443.66;4994715;28;20023;-79
2024/01/17 07:47:23;;;;;;;13.82;8.57;;;;;;;0.05;100.00;91426.16;4990077;28;20097;-79
2024/01/17 07:49:48;;;;;;;13.40;8.77;;;;;;;0.04;100.00;91419.44;4984681;28;20770;-81
2024/01/17 07:52:14;;;;;;;13.35;9.05;;;;;;;-0.11;100.00;91398.75;4987033;28;20041;-81
2024/01/17 07:54:40;;;;;;;18.63;9.63;;;;;;;-0.01;100.00;91414.25;4997344;28;20034;-80
2024/01/17 07:57:06;;;;;;;15.00;8.52;;;;;;;0.13;100.00;91417.94;4974575;28;20040;-79
2024/01/17 07:59:31;;;;;;;17.15;9.02;;;;;;;0.16;100.00;91419.28;5002418;28;20091;-80
2024/01/17 08:01:57;;;;;;;12.13;7.57;;;;;;;0.12;100.00;91411.25;4970975;28;20125;-80
2024/01/17 08:04:24;;;;;;;15.18;8.05;;;;;;;0.23;100.00;91417.25;5008062;28;20027;-80
2024/01/17 08:06:50;;;;;;;12.93;7.50;;;;;;;0.13;100.00;91407.66;5008506;28;20042;-79
2024/01/17 08:09:21;;;;;;;12.45;7.68;;;;;;;0.17;100.00;91403.56;5005881;28;20026;-80
2024/01/17 08:11:49;;;;;;;15.15;8.52;;;;;;;0.18;100.00;91402.56;5004709;28;20038;-81
2024/01/17 08:14:15;;;;;;;10.75;7.30;;;;;;;0.19;100.00;91401.50;5007957;28;20045;-81
2024/01/17 08:16:40;;;;;;;12.77;8.15;;;;;;;0.22;100.00;91402.03;4999699;28;20039;-80
2024/01/17 08:19:06;;;;;;;15.25;8.75;;;;;;;0.18;100.00;91394.84;5006258;28;20026;-81
2024/01/17 08:21:32;;;;;;;14.27;8.48;;;;;;;0.24;100.00;91405.16;4997473;28;20030;-81
2024/01/17 08:23:59;;;;;;;13.02;8.55;;;;;;;0.25;100.00;91402.34;5006162;28;20026;-81
2024/01/17 08:26:25;;;;;;;16.20;8.57;;;;;;;0.28;100.00;91393.34;4981484;28;20901;-81
2024/01/17 08:28:51;;;;;;;12.85;8.35;;;;;;;0.30;100.00;91391.28;5005202;28;20035;-81
2024/01/17 08:31:16;;;;;;;12.32;7.55;;;;;;;0.32;100.00;91391.81;4997709;28;20141;-81
2024/01/17 08:33:42;;;;;;;12.77;8.10;;;;;;;0.28;100.00;91390.75;4987795;28;20027;-80
2024/01/17 08:36:08;;;;;;;15.27;7.90;;;;;;;0.28;100.00;91383.03;4997353;28;20046;-79
2024/01/17 08:38:34;;;;;;;11.02;6.55;;;;;;;0.26;100.00;91351.63;4997942;28;20454;-81
2024/01/17 08:41:00;;;;;;;11.65;7.28;;;;;;;0.39;100.00;91366.63;4978497;28;20385;-81
2024/01/17 08:43:25;;;;;;;13.23;7.57;;;;;;;0.37;100.00;91358.34;4999904;28;20034;-80
2024/01/17 08:45:51;;;;;;;12.82;7.47;;;;;;;0.41;100.00;91357.59;5008776;28;20126;-81
2024/01/17 08:48:17;;;;;;;10.35;6.95;;;;;;;0.35;100.00;91355.25;5006191;28;20098;-80
2024/01/17 08:50:42;;;;;;;11.77;7.50;;;;;;;0.47;100.00;91373.84;4970719;28;20048;-81
2024/01/17 08:53:09;;;;;;;12.07;7.40;;;;;;;0.47;100.00;91368.69;4984417;28;20030;-79
2024/01/17 08:55:34;;;;;;;12.52;7.03;;;;;;;0.47;100.00;91355.81;4980458;28;20050;-79
2024/01/17 08:58:00;;;;;;;10.82;6.25;;;;;;;0.50;100.00;91368.19;5001370;28;20273;-81
2024/01/17 09:00:26;;;;;;;9.90;5.82;;;;;;;0.49;100.00;91363.28;4978072;28;20445;-81
2024/01/17 09:02:52;;;;;;;13.10;7.05;;;;;;;0.37;100.00;91353.22;4978286;28;20062;-80
2024/01/17 09:05:20;;;;;;;11.68;6.70;;;;;;;0.49;100.00;91371.03;4995809;28;20030;-80
2024/01/17 09:07:48;;;;;;;9.57;6.05;;;;;;;0.44;100.00;91384.66;5003734;28;20038;-80
2024/01/17 09:10:17;;;;;;;11.82;6.60;;;;;;;0.48;100.00;91369.47;4970559;28;20141;-80
2024/01/17 09:12:46;;;;;;;12.02;6.20;;;;;;;0.48;100.00;91349.66;4985776;28;20027;-80
2024/01/17 09:15:12;;;;;;;9.70;5.85;;;;;;;0.61;100.00;91354.34;4994354;28;20054;-80
2024/01/17 09:17:37;;;;;;;10.25;5.60;;;;;;;0.62;100.00;91347.38;5003069;28;20022;-80
2024/01/17 09:20:06;;;;;;;11.65;5.88;;;;;;;0.73;100.00;91355.91;4998512;28;20126;-81
2024/01/17 09:22:32;;;;;;;10.45;6.43;;;;;;;0.77;100.00;91352.56;4994421;28;20030;-82
2024/01/17 09:25:02;;;;;;;10.30;6.97;;;;;;;0.80;100.00;91361.59;4984658;28;20074;-81
2024/01/17 09:27:31;;;;;;;13.63;7.40;;;;;;;0.87;100.00;91356.22;4977006;28;20038;-82
2024/01/17 09:29:57;;;;;;;13.60;8.27;;;;;;;0.90;100.00;91351.34;4993063;28;20042;-80
2024/01/17 09:32:22;;;;;;;15.35;8.05;;;;;;;0.92;100.00;91364.72;4995469;28;20030;-79
2024/01/17 09:34:48;;;;;;;12.57;7.70;;;;;;;0.90;100.00;91361.63;4996001;28;20110;-80
2024/01/17 09:37:14;;;;;;;14.85;7.90;;;;;;;0.95;100.00;91363.44;4998474;28;20137;-80
2024/01/17 09:39:40;;;;;;;14.50;8.25;;;;;;;0.93;100.00;91366.28;4986827;28;20066;-80
2024/01/17 09:42:06;;;;;;;13.38;8.05;;;;;;;0.94;100.00;91367.81;4979187;28;20031;-78
2024/01/17 09:44:33;;;;;;;14.90;7.22;;;;;;;0.97;100.00;91366.53;4985554;28;20367;-80
2024/01/17 09:47:01;;;;;;;11.35;7.32;;;;;;;0.97;100.00;91364.75;4985835;28;20053;-79
2024/01/17 09:49:27;;;;;;;11.10;7.57;;;;;;;0.94;100.00;91367.81;4994367;28;20061;-80
2024/01/17 09:51:54;;;;;;;13.68;7.43;;;;;;;0.93;100.00;91368.84;4993732;28;20042;-80
2024/01/17 09:54:24;;;;;;;14.60;8.55;;;;;;;0.91;100.00;91365.75;4992246;28;20106;-81
2024/01/17 09:56:50;;;;;;;14.30;7.78;;;;;;;0.92;100.00;91369.88;4998526;28;20034;-80
2024/01/17 09:59:21;;;;;;;14.82;8.25;;;;;;;0.90;100.00;91366.78;5002582;28;20546;-81
2024/01/17 10:01:47;;;;;;;12.70;7.68;;;;;;;0.83;100.00;91355.94;5001283;28;20422;-80
2024/01/17 10:04:13;;;;;;;12.95;7.20;;;;;;;0.92;100.00;91369.09;4997539;28;20138;-81
2024/01/17 10:06:43;;;;;;;12.02;7.43;;;;;;;0.87;100.00;91356.22;4980099;28;20037;-79
2024/01/17 10:09:09;;;;;;;13.20;7.85;;;;;;;0.91;100.00;91363.16;4983391;28;20045;-80
2024/01/17 10:11:35;;;;;;;13.30;7.93;;;;;;;0.94;100.00;91364.47;4983720;28;20039;-80
2024/01/17 10:14:02;;;;;;;13.80;8.18;;;;;;;0.90;100.00;91361.63;4983658;28;20049;-81
2024/01/17 10:16:28;;;;;;;11.25;7.50;;;;;;;1.00;100.00;91364.22;5001226;28;20038;-81
2024/01/17 10:18:54;;;;;;;14.02;8.25;;;;;;;1.03;100.00;91355.97;5001220;28;20042;-81
2024/01/17 10:21:20;;;;;;;14.80;8.02;;;;;;;1.06;100.00;91353.91;4993044;28;20129;-80
2024/01/17 10:23:45;;;;;;;12.13;7.25;;;;;;;1.08;100.00;91347.50;4974593;28;20419;-80
2024/01/17 10:26:11;;;;;;;13.45;7.72;;;;;;;1.11;100.00;91346.97;4981136;28;20061;-80
2024/01/17 10:28:37;;;;;;;11.90;6.82;;;;;;;1.19;100.00;91332.78;4999519;28;20042;-80
2024/01/17 10:31:04;;;;;;;12.32;7.57;;;;;;;0.99;100.00;91297.47;4999001;28;20482;-80
2024/01/17 10:33:32;;;;;;;11.30;7.55;;;;;;;1.24;100.00;91331.00;5000556;28;20061;-81
2024/01/17 10:35:58;;;;;;;12.18;7.30;;;;;;;1.26;100.00;91341.03;5000563;28;20030;-80
2024/01/17 10:38:29;;;;;;;13.60;7.40;;;;;;;1.25;100.00;91335.13;4997029;28;20030;-80
2024/01/17 10:41:07;;;;;;;11.00;6.88;;;;;;;1.21;100.00;91328.94;4995893;28;20050;-79
2024/01/17 10:43:51;;;;;;;11.00;7.05;;;;;;;1.17;100.00;91321.97;4972812;28;20042;-78
2024/01/17 10:46:17;;;;;;;13.80;7.50;;;;;;;1.21;100.00;91341.06;4991259;28;20041;-80
2024/01/17 10:48:42;;;;;;;13.10;6.88;;;;;;;1.21;100.00;91330.75;4974013;28;20031;-78
2024/01/17 10:51:11;;;;;;;10.40;7.03;;;;;;;1.18;100.00;91341.56;4990731;28;20044;-78
2024/01/17 10:53:39;;;;;;;10.07;6.32;;;;;;;1.21;100.00;91341.06;4973126;28;20114;-78
2024/01/17 10:56:06;;;;;;;11.35;7.15;;;;;;;1.22;100.00;91340.03;4992404;28;20089;-78
2024/01/17 10:58:35;;;;;;;12.15;6.70;;;;;;;1.22;100.00;91337.47;4976862;28;20037;-79
2024/01/17 11:01:14;;;;;;;10.63;6.60;;;;;;;1.15;100.00;91337.72;4971939;28;20055;-78
2024/01/17 11:03:43;;;;;;;25.33;13.57;;;;;;;1.13;100.00;91334.59;4974030;28;20102;-79
2024/01/17 11:06:08;;;;;;;18.55;10.63;;;;;;;0.84;100.00;91329.16;4973080;28;20557;-78
2024/01/17 11:08:36;;;;;;;12.65;7.63;;;;;;;0.87;100.00;91328.63;4984544;28;20047;-79
2024/01/17 11:11:02;;;;;;;13.43;8.27;;;;;;;0.90;100.00;91330.72;4971486;28;20041;-79
2024/01/17 11:13:29;;;;;;;14.25;8.60;;;;;;;0.87;100.00;91320.91;4972203;28;20039;-78
2024/01/17 11:15:56;;;;;;;14.75;9.43;;;;;;;0.83;100.00;91315.50;4970866;28;20042;-79
2024/01/17 11:18:25;;;;;;;14.77;8.52;;;;;;;0.76;100.00;91293.56;4949837;28;20027;-78